Time;durP1;ratioP1;P1;durP2;ratioP2;P2;SDS_P1;SDS_P2;PMS_P1;PMS_P2;Temp;Humidity;BMP_temperature;BMP_pressure;BME280_temperature;BME280_humidity;BME280_pressure;Samples;Min_cycle;Max_cycle;Signal;HPM_P1;HPM_P2
2022/02/01 00:01:15;;;;;;;;;;;;;;;;;;5027236;28;19920;-96
2022/02/01 00:03:45;;;;;;;;;;;;;;;;;;5007639;28;19930;-96
2022/02/01 00:06:16;;;;;;;;;;;;;;;;;;5006855;28;20025;-96
2022/02/01 00:08:49;;;;;;;;;;;;;;;;;;5006044;28;19973;-96
2022/02/01 00:11:27;;;;;;;;;;;;;;;;;;4989469;28;19926;-96
2022/02/01 00:14:06;;;;;;;;;;;;;;;;;;5007046;28;19969;-96
2022/02/01 00:16:55;;;;;;;;;;;;;;;;;;5008689;28;19964;-96
2022/02/01 00:33:26;;;;;;;;;;;;;;;;;;5025838;28;19937;-96
2022/02/01 00:35:58;;;;;;;;;;;;;;;;;;5024440;28;19925;-96
2022/02/01 00:38:26;;;;;;;;;;;;;;;;;;5023750;28;19949;-95
2022/02/01 00:40:56;;;;;;;;;;;;;;;;;;5026000;28;19957;-96
2022/02/01 00:43:22;;;;;;;;;;;;;;;;;;5025896;28;19932;-95
2022/02/01 00:45:48;;;;;;;;;;;;;;;;;;5025029;28;19929;-95
2022/02/01 00:48:15;;;;;;;;;;;;;;;;;;5024625;28;19926;-95
2022/02/01 00:50:41;;;;;;;;;;;;;;;;;;5024484;28;19925;-96
2022/02/01 00:53:07;;;;;;;;;;;;;;;;;;5024641;28;19948;-96
2022/02/01 00:55:33;;;;;;;;;;;;;;;;;;5024505;28;19949;-96
2022/02/01 00:58:00;;;;;;;;;;;;;;;;;;5023056;28;20367;-96
2022/02/01 01:00:26;;;;;;;;;;;;;;;;;;5025322;28;19949;-96
2022/02/01 01:02:52;;;;;;;;;;;;;;;;;;5015795;28;19958;-95
2022/02/01 01:05:19;;;;;;;;;;;;;;;;;;5006320;28;20328;-95
2022/02/01 01:07:45;;;;;;;;;;;;;;;;;;5015281;28;19925;-96
2022/02/01 01:10:12;;;;;;;;;;;;;;;;;;5025580;28;19949;-96
2022/02/01 01:12:48;;;;;;;;;;;;;;;;;;5024346;28;19972;-96
2022/02/01 01:15:19;;;;;;;;;;;;;;;;;;5024040;28;19925;-96
2022/02/01 01:18:09;;;;;;;;;;;;;;;;;;5014444;28;19950;-96
2022/02/01 01:45:14;;;;;;;;;;;;;;;;;;5024466;28;19976;-96
2022/02/01 01:53:15;;;;;;;;;;;;;;;;;;5025487;28;20081;-96
2022/02/01 01:55:41;;;;;;;;;;;;;;;;;;5026224;28;19929;-96
2022/02/01 01:58:08;;;;;;;;;;;;;;;;;;5025950;28;19933;-96
2022/02/01 02:00:49;;;;;;;;;;;;;;;;;;5025596;28;20661;-96
2022/02/01 02:03:15;;;;;;;;;;;;;;;;;;5016902;28;19926;-96
2022/02/01 02:05:41;;;;;;;;;;;;;;;;;;5007684;28;19926;-96
2022/02/01 02:08:08;;;;;;;;;;;;;;;;;;5007184;28;20016;-96
2022/02/01 02:10:39;;;;;;;;;;;;;;;;;;5007963;28;19932;-96
2022/02/01 02:14:17;;;;;;;;;;;;;;;;;;5009149;28;19949;-96
2022/02/01 02:15:58;;;;;;;;;;;;;;;;;;5007009;28;19926;-96
2022/02/01 02:18:25;;;;;;;;;;;;;;;;;;5008840;28;19926;-96
2022/02/01 02:20:52;;;;;;;;;;;;;;;;;;5014143;28;19926;-96
2022/02/01 02:23:18;;;;;;;;;;;;;;;;;;5007571;28;19926;-96
2022/02/01 02:25:45;;;;;;;;;;;;;;;;;;5005812;28;19926;-96
2022/02/01 02:28:14;;;;;;;;;;;;;;;;;;5013443;28;19926;-96
2022/02/01 02:30:40;;;;;;;;;;;;;;;;;;5025842;28;19932;-95
2022/02/01 02:33:06;;;;;;;;;;;;;;;;;;5023686;28;19926;-95
2022/02/01 02:35:35;;;;;;;;;;;;;;;;;;5024737;28;19984;-96
2022/02/01 02:38:07;;;;;;;;;;;;;;;;;;5024840;28;19949;-95
2022/02/01 02:40:54;;;;;;;;;;;;;;;;;;5024853;28;19925;-96
2022/02/01 02:46:04;;;;;;;;;;;;;;;;;;5024756;28;19952;-96
2022/02/01 02:48:30;;;;;;;;;;;;;;;;;;5025117;28;19925;-96
2022/02/01 02:50:57;;;;;;;;;;;;;;;;;;5023689;28;19926;-96
2022/02/01 02:53:23;;;;;;;;;;;;;;;;;;5022871;28;19926;-96
2022/02/01 02:55:50;;;;;;;;;;;;;;;;;;5023911;28;20540;-96
2022/02/01 02:58:16;;;;;;;;;;;;;;;;;;5015103;28;19926;-96
2022/02/01 03:00:43;;;;;;;;;;;;;;;;;;5007430;28;19937;-96
2022/02/01 03:03:09;;;;;;;;;;;;;;;;;;5009445;28;19961;-96
2022/02/01 03:05:38;;;;;;;;;;;;;;;;;;5011587;28;19926;-96
2022/02/01 03:08:04;;;;;;;;;;;;;;;;;;5010353;28;19926;-96
2022/02/01 03:10:31;;;;;;;;;;;;;;;;;;5010787;28;19933;-96
2022/02/01 03:13:09;;;;;;;;;;;;;;;;;;5027626;23;19929;-96
2022/02/01 03:15:43;;;;;;;;;;;;;;;;;;5027307;28;20390;-95
2022/02/01 03:20:54;;;;;;;;;;;;;;;;;;5028863;28;19999;-96
2022/02/01 03:23:20;;;;;;;;;;;;;;;;;;5028479;28;19925;-96
2022/02/01 03:25:46;;;;;;;;;;;;;;;;;;5026698;28;19972;-96
2022/02/01 03:28:13;;;;;;;;;;;;;;;;;;5020533;28;19953;-96
2022/02/01 03:30:39;;;;;;;;;;;;;;;;;;5005636;28;19926;-95
2022/02/01 03:33:05;;;;;;;;;;;;;;;;;;5009033;28;19926;-95
2022/02/01 03:35:32;;;;;;;;;;;;;;;;;;5026305;28;20406;-96
2022/02/01 03:38:00;;;;;;;;;;;;;;;;;;5025769;28;19925;-96
2022/02/01 03:40:26;;;;;;;;;;;;;;;;;;5026025;28;19948;-95
2022/02/01 03:42:53;;;;;;;;;;;;;;;;;;5025742;28;19949;-95
2022/02/01 03:45:19;;;;;;;;;;;;;;;;;;5026436;28;19979;-95
2022/02/01 03:47:45;;;;;;;;;;;;;;;;;;5026580;28;19933;-95
2022/02/01 03:50:11;;;;;;;;;;;;;;;;;;5026822;28;19925;-95
2022/02/01 03:52:38;;;;;;;;;;;;;;;;;;5025778;28;19947;-95
2022/02/01 03:55:04;;;;;;;;;;;;;;;;;;5025401;28;19925;-95
2022/02/01 03:57:30;;;;;;;;;;;;;;;;;;5026524;28;20546;-94
2022/02/01 03:59:56;;;;;;;;;;;;;;;;;;5026211;28;19929;-95
2022/02/01 04:02:23;;;;;;;;;;;;;;;;;;5026403;28;19933;-96
2022/02/01 04:04:53;;;;;;;;;;;;;;;;;;5026010;28;19932;-94
2022/02/01 04:07:19;;;;;;;;;;;;;;;;;;5025835;28;20040;-95
2022/02/01 04:09:45;;;;;;;;;;;;;;;;;;5025488;28;19979;-95
2022/02/01 04:12:11;;;;;;;;;;;;;;;;;;5024835;28;19925;-94
2022/02/01 04:14:38;;;;;;;;;;;;;;;;;;5025061;28;19956;-95
2022/02/01 04:17:04;;;;;;;;;;;;;;;;;;5025881;28;19929;-95
2022/02/01 04:19:32;;;;;;;;;;;;;;;;;;5026175;28;19925;-96
2022/02/01 04:22:01;;;;;;;;;;;;;;;;;;5023919;28;19992;-96
2022/02/01 04:24:27;;;;;;;;;;;;;;;;;;5024096;28;19926;-96
2022/02/01 04:26:53;;;;;;;;;;;;;;;;;;5026654;28;19925;-96
2022/02/01 04:29:19;;;;;;;;;;;;;;;;;;5026392;28;19925;-95
2022/02/01 04:31:46;;;;;;;;;;;;;;;;;;5025035;28;19952;-95
2022/02/01 04:34:12;;;;;;;;;;;;;;;;;;5025213;28;19953;-96
2022/02/01 04:36:38;;;;;;;;;;;;;;;;;;5025397;28;19925;-95
2022/02/01 04:39:05;;;;;;;;;;;;;;;;;;5024368;28;19948;-96
2022/02/01 04:41:31;;;;;;;;;;;;;;;;;;5025566;28;19925;-96
2022/02/01 04:43:58;;;;;;;;;;;;;;;;;;5025819;28;19925;-96
2022/02/01 04:46:25;;;;;;;;;;;;;;;;;;5024948;28;19933;-94
2022/02/01 04:48:51;;;;;;;;;;;;;;;;;;5022102;28;19925;-95
2022/02/01 04:51:18;;;;;;;;;;;;;;;;;;5024813;28;19932;-95
2022/02/01 04:53:44;;;;;;;;;;;;;;;;;;5024696;28;20023;-96
2022/02/01 04:56:10;;;;;;;;;;;;;;;;;;5024405;28;19925;-96
2022/02/01 04:58:37;;;;;;;;;;;;;;;;;;5024310;28;20348;-95
2022/02/01 05:01:03;;;;;;;;;;;;;;;;;;5024521;28;19969;-96
2022/02/01 05:03:29;;;;;;;;;;;;;;;;;;5024442;28;19926;-94
2022/02/01 05:05:56;;;;;;;;;;;;;;;;;;5024028;28;19925;-94
2022/02/01 05:08:24;;;;;;;;;;;;;;;;;;5023436;28;19953;-95
2022/02/01 05:10:51;;;;;;;;;;;;;;;;;;5007079;28;19931;-95
2022/02/01 05:16:04;;;;;;;;;;;;;;;;;;5024491;28;19920;-94
2022/02/01 05:18:36;;;;;;;;;;;;;;;;;;5023993;28;19926;-95
2022/02/01 05:21:06;;;;;;;;;;;;;;;;;;5023307;28;19964;-94
2022/02/01 05:23:32;;;;;;;;;;;;;;;;;;5023406;28;19948;-96
2022/02/01 05:26:00;;;;;;;;;;;;;;;;;;5023256;28;19925;-94
2022/02/01 05:28:26;;;;;;;;;;;;;;;;;;5022691;28;19969;-94
2022/02/01 05:30:53;;;;;;;;;;;;;;;;;;5023948;28;19972;-94
2022/02/01 05:33:20;;;;;;;;;;;;;;;;;;5024297;28;19925;-94
2022/02/01 05:35:46;;;;;;;;;;;;;;;;;;5023724;28;19929;-95
2022/02/01 05:38:12;;;;;;;;;;;;;;;;;;5021798;28;19925;-95
2022/02/01 05:40:39;;;;;;;;;;;;;;;;;;5023247;28;19957;-93
2022/02/01 05:43:09;;;;;;;;;;;;;;;;;;5024084;28;19925;-94
2022/02/01 05:45:37;;;;;;;;;;;;;;;;;;5024287;28;19964;-96
2022/02/01 05:48:03;;;;;;;;;;;;;;;;;;5023958;28;19925;-95
2022/02/01 05:50:29;;;;;;;;;;;;;;;;;;5023294;28;19956;-95
2022/02/01 05:52:56;;;;;;;;;;;;;;;;;;5021731;28;19925;-95
2022/02/01 05:55:22;;;;;;;;;;;;;;;;;;5023135;28;19949;-95
2022/02/01 05:57:49;;;;;;;;;;;;;;;;;;5023489;28;19925;-95
2022/02/01 06:00:17;;;;;;;;;;;;;;;;;;5024051;28;19962;-95
2022/02/01 06:02:43;;;;;;;;;;;;;;;;;;5006645;28;19976;-95
2022/02/01 06:05:09;;;;;;;;;;;;;;;;;;5024104;28;19926;-94
2022/02/01 06:07:36;;;;;;;;;;;;;;;;;;5023486;28;19926;-94
2022/02/01 06:10:02;;;;;;;;;;;;;;;;;;5023817;28;19937;-94
2022/02/01 06:12:28;;;;;;;;;;;;;;;;;;5023466;28;19926;-94
2022/02/01 06:14:54;;;;;;;;;;;;;;;;;;5001568;28;19930;-94
2022/02/01 06:17:21;;;;;;;;;;;;;;;;;;5002644;28;19930;-94
2022/02/01 06:19:47;;;;;;;;;;;;;;;;;;5004073;28;19926;-96
2022/02/01 06:22:13;;;;;;;;;;;;;;;;;;5003391;28;19926;-96
2022/02/01 06:24:40;;;;;;;;;;;;;;;;;;5001973;28;19953;-95
2022/02/01 06:27:06;;;;;;;;;;;;;;;;;;5003284;28;19929;-94
2022/02/01 06:29:32;;;;;;;;;;;;;;;;;;5003400;28;19980;-95
2022/02/01 06:31:59;;;;;;;;;;;;;;;;;;5005733;28;19950;-94
2022/02/01 06:34:25;;;;;;;;;;;;;;;;;;5006140;28;20384;-95
2022/02/01 06:36:52;;;;;;;;;;;;;;;;;;5008785;28;19926;-95
2022/02/01 06:39:20;;;;;;;;;;;;;;;;;;5008945;28;19925;-94
2022/02/01 06:41:46;;;;;;;;;;;;;;;;;;5001135;28;19925;-95
2022/02/01 06:44:15;;;;;;;;;;;;;;;;;;5011266;28;19909;-94
2022/02/01 06:46:41;;;;;;;;;;;;;;;;;;5014380;28;20030;-92
2022/02/01 06:49:09;;;;;;;;;;;;;;;;;;5014981;28;19930;-94
2022/02/01 06:51:37;;;;;;;;;;;;;;;;;;5014540;28;20021;-96
2022/02/01 06:56:34;;;;;;;;;;;;;;;;;;5001899;28;19933;-94
2022/02/01 06:59:01;;;;;;;;;;;;;;;;;;4998798;28;19926;-95
2022/02/01 07:01:27;;;;;;;;;;;;;;;;;;5001947;28;19926;-94
2022/02/01 07:03:53;;;;;;;;;;;;;;;;;;4998882;28;19929;-94
2022/02/01 07:06:19;;;;;;;;;;;;;;;;;;5007548;28;19926;-92
2022/02/01 07:08:47;;;;;;;;;;;;;;;;;;4995532;28;19933;-96
2022/02/01 07:11:13;;;;;;;;;;;;;;;;;;4990462;28;20065;-93
2022/02/01 07:13:39;;;;;;;;;;;;;;;;;;4989961;28;19926;-93
2022/02/01 07:16:06;;;;;;;;;;;;;;;;;;5003372;28;19956;-93
2022/02/01 07:18:32;;;;;;;;;;;;;;;;;;5009159;28;19930;-94
2022/02/01 07:20:58;;;;;;;;;;;;;;;;;;5008802;28;19926;-93
2022/02/01 07:23:26;;;;;;;;;;;;;;;;;;4990826;28;19950;-93
2022/02/01 07:25:52;;;;;;;;;;;;;;;;;;5001362;28;19933;-94
2022/02/01 07:28:19;;;;;;;;;;;;;;;;;;5009525;28;19981;-93
2022/02/01 07:30:45;;;;;;;;;;;;;;;;;;4997793;28;19950;-93
2022/02/01 07:33:11;;;;;;;;;;;;;;;;;;5005617;28;19949;-91
2022/02/01 07:35:38;;;;;;;;;;;;;;;;;;5007666;28;19926;-93
2022/02/01 07:38:04;;;;;;;;;;;;;;;;;;5010302;28;20044;-92
2022/02/01 07:40:31;;;;;;;;;;;;;;;;;;5007415;28;19981;-95
2022/02/01 07:42:57;;;;;;;;;;;;;;;;;;5000660;28;19980;-94
2022/02/01 07:45:26;;;;;;;;;;;;;;;;;;5006091;28;19926;-94
2022/02/01 07:47:52;;;;;;;;;;;;;;;;;;4999274;28;19957;-93
2022/02/01 07:50:19;;;;;;;;;;;;;;;;;;5007225;28;19926;-93
2022/02/01 07:52:45;;;;;;;;;;;;;;;;;;5002036;28;20352;-92
2022/02/01 07:55:11;;;;;;;;;;;;;;;;;;4985698;28;19953;-94
2022/02/01 07:57:41;;;;;;;;;;;;;;;;;;4986328;28;20324;-96
2022/02/01 08:00:07;;;;;;;;;;;;;;;;;;4980097;28;19933;-94
2022/02/01 08:02:35;;;;;;;;;;;;;;;;;;4970059;29;19930;-95
2022/02/01 08:05:01;;;;;;;;;;;;;;;;;;4966474;28;20758;-92
2022/02/01 08:07:27;;;;;;;;;;;;;;;;;;4968921;28;20360;-92
2022/02/01 08:09:57;;;;;;;;;;;;;;;;;;4986307;28;19926;-92
2022/02/01 08:13:00;;;;;;;;;;;;;;;;;;4987042;28;19926;-96
2022/02/01 08:18:13;;;;;;;;;;;;;;;;;;4970805;28;19921;-93
2022/02/01 08:20:47;;;;;;;;;;;;;;;;;;4978468;28;19926;-93
2022/02/01 08:23:13;;;;;;;;;;;;;;;;;;4984879;28;19926;-94
2022/02/01 08:25:40;;;;;;;;;;;;;;;;;;4984801;28;19989;-94
2022/02/01 08:28:06;;;;;;;;;;;;;;;;;;4985983;28;19930;-91
2022/02/01 08:30:32;;;;;;;;;;;;;;;;;;4979018;28;19950;-93
2022/02/01 08:32:59;;;;;;;;;;;;;;;;;;4984717;28;19930;-95
2022/02/01 08:35:25;;;;;;;;;;;;;;;;;;4985834;28;19926;-93
2022/02/01 08:37:51;;;;;;;;;;;;;;;;;;4985799;28;19953;-94
2022/02/01 08:40:19;;;;;;;;;;;;;;;;;;4985654;28;19957;-94
2022/02/01 08:42:45;;;;;;;;;;;;;;;;;;4985893;28;19934;-94
2022/02/01 08:45:13;;;;;;;;;;;;;;;;;;4982136;28;19926;-95
2022/02/01 08:47:39;;;;;;;;;;;;;;;;;;4967295;28;19930;-94
2022/02/01 08:50:05;;;;;;;;;;;;;;;;;;4965740;28;19934;-94
2022/02/01 08:52:39;;;;;;;;;;;;;;;;;;4968804;28;19926;-95
2022/02/01 08:55:07;;;;;;;;;;;;;;;;;;4983146;28;20361;-94
2022/02/01 08:57:33;;;;;;;;;;;;;;;;;;4983580;28;19934;-94
2022/02/01 09:00:04;;;;;;;;;;;;;;;;;;4984746;28;19926;-93
2022/02/01 09:02:30;;;;;;;;;;;;;;;;;;4985616;28;20011;-94
2022/02/01 09:04:56;;;;;;;;;;;;;;;;;;4985144;28;19954;-93
2022/02/01 09:07:22;;;;;;;;;;;;;;;;;;4984334;28;19927;-94
2022/02/01 09:09:49;;;;;;;;;;;;;;;;;;4984003;28;19926;-95
2022/02/01 09:12:16;;;;;;;;;;;;;;;;;;4985261;28;19959;-93
2022/02/01 09:14:44;;;;;;;;;;;;;;;;;;4985178;28;19932;-94
2022/02/01 09:17:10;;;;;;;;;;;;;;;;;;4966508;28;19926;-92
2022/02/01 09:19:36;;;;;;;;;;;;;;;;;;4966177;29;19926;-96
2022/02/01 09:22:02;;;;;;;;;;;;;;;;;;4963519;28;20334;-93
2022/02/01 09:24:29;;;;;;;;;;;;;;;;;;4979710;28;19980;-94
2022/02/01 09:26:56;;;;;;;;;;;;;;;;;;4983834;28;19932;-95
2022/02/01 09:29:22;;;;;;;;;;;;;;;;;;4983979;28;19926;-95
2022/02/01 09:31:48;;;;;;;;;;;;;;;;;;4969541;28;19951;-95
2022/02/01 09:34:14;;;;;;;;;;;;;;;;;;4964271;29;19965;-95
2022/02/01 09:36:41;;;;;;;;;;;;;;;;;;4964661;28;19930;-95
2022/02/01 09:39:08;;;;;;;;;;;;;;;;;;4975099;28;19932;-95
2022/02/01 09:41:34;;;;;;;;;;;;;;;;;;4968008;28;19989;-96
2022/02/01 09:44:01;;;;;;;;;;;;;;;;;;4966314;28;19927;-96
2022/02/01 09:46:27;;;;;;;;;;;;;;;;;;4966471;29;19930;-96
2022/02/01 09:51:29;;;;;;;;;;;;;;;;;;5101995;23;19925;-96
2022/02/01 09:53:55;;;;;;;;;;;;;;;;;;5007181;28;19933;-96
2022/02/01 09:56:21;;;;;;;;;;;;;;;;;;4996081;28;19926;-96
2022/02/01 09:58:53;;;;;;;;;;;;;;;;;;4984441;28;19936;-95
2022/02/01 10:01:20;;;;;;;;;;;;;;;;;;4983635;28;19926;-94
2022/02/01 10:03:47;;;;;;;;;;;;;;;;;;4983549;28;20274;-93
2022/02/01 10:06:14;;;;;;;;;;;;;;;;;;4991988;28;20008;-94
2022/02/01 10:08:42;;;;;;;;;;;;;;;;;;5002923;28;20009;-92
2022/02/01 10:11:09;;;;;;;;;;;;;;;;;;5003216;28;19949;-94
2022/02/01 10:13:38;;;;;;;;;;;;;;;;;;5002784;28;19925;-95
2022/02/01 10:16:11;;;;;;;;;;;;;;;;;;5002936;28;19941;-95
2022/02/01 10:18:37;;;;;;;;;;;;;;;;;;5002527;28;19952;-95
2022/02/01 10:21:03;;;;;;;;;;;;;;;;;;5003786;28;19982;-95
2022/02/01 10:23:30;;;;;;;;;;;;;;;;;;5004089;28;19974;-95
2022/02/01 10:25:56;;;;;;;;;;;;;;;;;;4999800;28;19926;-96
2022/02/01 10:28:22;;;;;;;;;;;;;;;;;;4986052;28;19937;-96
2022/02/01 10:30:49;;;;;;;;;;;;;;;;;;4983859;28;19925;-96
2022/02/01 10:33:31;;;;;;;;;;;;;;;;;;4987680;28;19926;-96
2022/02/01 10:35:58;;;;;;;;;;;;;;;;;;4995288;28;19925;-96
2022/02/01 10:38:26;;;;;;;;;;;;;;;;;;5001231;28;19933;-96
2022/02/01 10:49:19;;;;;;;;;;;;;;;;;;5236632;23;19916;-96
2022/02/01 11:31:50;;;;;;;;;;;;;;;;;;5016136;23;20572;-96
2022/02/01 11:50:03;;;;;;;;;;;;;;;;;;5028429;28;19937;-96
2022/02/01 11:52:36;;;;;;;;;;;;;;;;;;5033089;28;19936;-95
2022/02/01 11:55:03;;;;;;;;;;;;;;;;;;5029679;28;19948;-95
2022/02/01 11:57:32;;;;;;;;;;;;;;;;;;5016520;28;19932;-95
2022/02/01 12:00:08;;;;;;;;;;;;;;;;;;5009707;28;19937;-95
2022/02/01 12:02:37;;;;;;;;;;;;;;;;;;5018177;28;19940;-94
2022/02/01 12:05:06;;;;;;;;;;;;;;;;;;5027447;28;20012;-95
2022/02/01 12:07:33;;;;;;;;;;;;;;;;;;5032524;28;19972;-96
2022/02/01 12:10:00;;;;;;;;;;;;;;;;;;5034099;28;19926;-94
2022/02/01 12:15:01;;;;;;;;;;;;;;;;;;5006649;28;19926;-95
2022/02/01 12:17:28;;;;;;;;;;;;;;;;;;5007376;28;19933;-96
2022/02/01 12:19:55;;;;;;;;;;;;;;;;;;4992446;28;19933;-96
2022/02/01 12:22:21;;;;;;;;;;;;;;;;;;4996280;28;19926;-95
2022/02/01 12:24:48;;;;;;;;;;;;;;;;;;5004523;28;19926;-95
2022/02/01 12:27:14;;;;;;;;;;;;;;;;;;5003838;28;19925;-95
2022/02/01 12:29:42;;;;;;;;;;;;;;;;;;5010984;28;19933;-95
2022/02/01 12:32:09;;;;;;;;;;;;;;;;;;5012783;28;19925;-96
2022/02/01 12:34:35;;;;;;;;;;;;;;;;;;5010238;28;19930;-95
2022/02/01 12:37:01;;;;;;;;;;;;;;;;;;4995716;28;19950;-95
2022/02/01 12:39:31;;;;;;;;;;;;;;;;;;4984347;28;19937;-93
2022/02/01 12:42:01;;;;;;;;;;;;;;;;;;4984557;28;19926;-92
2022/02/01 12:47:11;;;;;;;;;;;;;;;;;;4982502;28;19941;-93
2022/02/01 12:49:37;;;;;;;;;;;;;;;;;;5001815;28;19926;-95
2022/02/01 12:52:04;;;;;;;;;;;;;;;;;;5004574;28;19929;-96
2022/02/01 12:54:30;;;;;;;;;;;;;;;;;;5003789;28;19951;-93
2022/02/01 12:56:56;;;;;;;;;;;;;;;;;;5002988;28;19949;-94
2022/02/01 12:59:22;;;;;;;;;;;;;;;;;;5003061;28;19925;-93
2022/02/01 13:01:49;;;;;;;;;;;;;;;;;;4983043;28;20009;-92
2022/02/01 13:04:15;;;;;;;;;;;;;;;;;;4996960;28;20009;-92
2022/02/01 13:06:42;;;;;;;;;;;;;;;;;;5001103;28;19953;-96
2022/02/01 13:14:43;;;;;;;;;;;;;;;;;;4991380;28;19988;-93
2022/02/01 13:17:21;;;;;;;;;;;;;;;;;;4983642;28;20395;-95
2022/02/01 13:22:31;;;;;;;;;;;;;;;;;;4988253;28;19945;-94
2022/02/01 13:24:58;;;;;;;;;;;;;;;;;;5000577;28;19953;-95
2022/02/01 13:27:24;;;;;;;;;;;;;;;;;;4998979;28;19926;-93
2022/02/01 13:29:50;;;;;;;;;;;;;;;;;;4999814;28;20388;-93
2022/02/01 13:32:16;;;;;;;;;;;;;;;;;;4998181;28;20360;-95
2022/02/01 13:34:43;;;;;;;;;;;;;;;;;;4981725;28;19926;-92
2022/02/01 13:37:09;;;;;;;;;;;;;;;;;;4979142;28;19996;-92
2022/02/01 13:39:37;;;;;;;;;;;;;;;;;;4993996;28;19988;-91
2022/02/01 13:42:03;;;;;;;;;;;;;;;;;;4995615;28;20008;-92
2022/02/01 13:44:31;;;;;;;;;;;;;;;;;;4999762;28;19930;-93
2022/02/01 13:46:58;;;;;;;;;;;;;;;;;;4981335;28;19930;-95
2022/02/01 13:49:24;;;;;;;;;;;;;;;;;;4985940;28;19958;-93
2022/02/01 13:51:50;;;;;;;;;;;;;;;;;;4985815;28;19926;-95
2022/02/01 13:54:16;;;;;;;;;;;;;;;;;;4987046;28;19934;-94
2022/02/01 13:56:46;;;;;;;;;;;;;;;;;;4965892;28;19926;-95
2022/02/01 13:59:12;;;;;;;;;;;;;;;;;;5002266;28;20037;-93
2022/02/01 14:01:40;;;;;;;;;;;;;;;;;;5003492;28;19933;-93
2022/02/01 14:04:07;;;;;;;;;;;;;;;;;;5003947;28;19973;-93
2022/02/01 14:06:45;;;;;;;;;;;;;;;;;;5003727;28;20368;-94
2022/02/01 14:09:19;;;;;;;;;;;;;;;;;;5002044;28;19926;-92
2022/02/01 14:25:44;;;;;;;;;;;;;;;;;;5165341;27;19915;-92
2022/02/01 14:33:31;;;;;;;;;;;;;;;;;;5100931;28;19943;-95
2022/02/01 14:36:04;;;;;;;;;;;;;;;;;;5103057;28;19924;-95
2022/02/01 14:38:45;;;;;;;;;;;;;;;;;;5099945;28;20257;-93
2022/02/01 14:46:35;;;;;;;;;;;;;;;;;;5100335;28;19924;-95
2022/02/01 14:49:01;;;;;;;;;;;;;;;;;;5099844;28;19925;-96
2022/02/01 14:51:28;;;;;;;;;;;;;;;;;;5100216;28;20405;-95
2022/02/01 14:54:00;;;;;;;;;;;;;;;;;;5101322;28;19924;-96
2022/02/01 15:04:42;;;;;;;;;;;;;;;;;;5101503;28;19942;-96
2022/02/01 15:07:14;;;;;;;;;;;;;;;;;;5099464;28;19931;-95
2022/02/01 15:12:55;;;;;;;;;;;;;;;;;;5099549;28;20317;-96
2022/02/01 15:15:22;;;;;;;;;;;;;;;;;;5101795;28;19924;-96
2022/02/01 15:17:48;;;;;;;;;;;;;;;;;;5098445;28;19935;-96
2022/02/01 15:20:14;;;;;;;;;;;;;;;;;;5080337;28;19924;-96
2022/02/01 15:22:41;;;;;;;;;;;;;;;;;;5080550;28;19947;-96
2022/02/01 15:25:10;;;;;;;;;;;;;;;;;;5091084;28;19931;-94
2022/02/01 15:27:36;;;;;;;;;;;;;;;;;;5086181;28;19928;-95
2022/02/01 15:30:04;;;;;;;;;;;;;;;;;;5087115;28;19989;-95
2022/02/01 15:32:30;;;;;;;;;;;;;;;;;;5082361;28;19925;-94
2022/02/01 15:34:56;;;;;;;;;;;;;;;;;;5064720;28;19928;-93
2022/02/01 15:37:28;;;;;;;;;;;;;;;;;;5065999;28;19925;-92
2022/02/01 15:59:03;;;;;;;;;;;;;;;;;;5075129;28;20041;-91
2022/02/01 16:01:41;;;;;;;;;;;;;;;;;;5074645;28;20574;-90
2022/02/01 16:04:07;;;;;;;;;;;;;;;;;;5075573;28;19924;-91
2022/02/01 16:06:36;;;;;;;;;;;;;;;;;;5084365;28;19925;-90
2022/02/01 16:09:11;;;;;;;;;;;;;;;;;;5068242;28;19924;-93
2022/02/01 16:11:39;;;;;;;;;;;;;;;;;;5064516;28;19957;-92
2022/02/01 16:14:06;;;;;;;;;;;;;;;;;;5064425;28;19970;-93
2022/02/01 16:16:32;;;;;;;;;;;;;;;;;;5064725;28;19924;-92
2022/02/01 16:18:58;;;;;;;;;;;;;;;;;;5064453;28;19925;-94
2022/02/01 16:21:24;;;;;;;;;;;;;;;;;;5064144;28;19925;-95
2022/02/01 16:23:51;;;;;;;;;;;;;;;;;;5067354;28;19925;-95
2022/02/01 16:26:17;;;;;;;;;;;;;;;;;;5064514;28;20316;-96
2022/02/01 16:28:44;;;;;;;;;;;;;;;;;;5072530;28;19924;-96
2022/02/01 16:31:18;;;;;;;;;;;;;;;;;;5084486;28;19947;-96
2022/02/01 16:33:44;;;;;;;;;;;;;;;;;;5060651;28;20659;-94
2022/02/01 16:36:11;;;;;;;;;;;;;;;;;;5061932;28;20385;-93
2022/02/01 16:44:04;;;;;;;;;;;;;;;;;;5094906;22;20632;-94
2022/02/01 16:46:34;;;;;;;;;;;;;;;;;;5044411;28;20027;-92
2022/02/01 16:49:00;;;;;;;;;;;;;;;;;;5041882;28;20012;-91
2022/02/01 16:51:26;;;;;;;;;;;;;;;;;;5024305;28;19929;-90
2022/02/01 16:53:56;;;;;;;;;;;;;;;;;;5034769;28;19972;-91
2022/02/01 16:56:27;;;;;;;;;;;;;;;;;;5043005;28;19925;-93
2022/02/01 16:58:56;;;;;;;;;;;;;;;;;;5044145;28;19948;-96
2022/02/01 17:04:04;;;;;;;;;;;;;;;;;;5072604;28;19925;-96
2022/02/01 17:06:30;;;;;;;;;;;;;;;;;;5065477;28;19964;-95
2022/02/01 17:08:57;;;;;;;;;;;;;;;;;;5066418;28;19947;-95
2022/02/01 17:11:38;;;;;;;;;;;;;;;;;;5070719;28;19925;-94
2022/02/01 17:14:10;;;;;;;;;;;;;;;;;;5075856;28;19925;-95
2022/02/01 17:22:24;;;;;;;;;;;;;;;;;;5059254;28;19973;-96
2022/02/01 17:27:25;;;;;;;;;;;;;;;;;;5090168;22;19925;-96
2022/02/01 17:29:52;;;;;;;;;;;;;;;;;;5067492;28;19931;-96
2022/02/01 17:35:02;;;;;;;;;;;;;;;;;;5068436;28;20011;-96
2022/02/01 17:40:03;;;;;;;;;;;;;;;;;;5153330;22;19924;-96
2022/02/01 17:42:34;;;;;;;;;;;;;;;;;;5101602;28;19908;-96
2022/02/01 17:45:00;;;;;;;;;;;;;;;;;;5083063;28;19995;-95
2022/02/01 17:47:29;;;;;;;;;;;;;;;;;;5085645;28;20025;-96
2022/02/01 17:50:01;;;;;;;;;;;;;;;;;;5076948;28;19929;-96
2022/02/01 17:52:41;;;;;;;;;;;;;;;;;;5067304;28;19948;-93
2022/02/01 17:55:07;;;;;;;;;;;;;;;;;;5080657;22;19925;-94
2022/02/01 17:57:34;;;;;;;;;;;;;;;;;;5046656;28;20144;-95
2022/02/01 18:00:06;;;;;;;;;;;;;;;;;;5054252;28;20639;-96
2022/02/01 18:02:41;;;;;;;;;;;;;;;;;;5053676;28;19956;-93
2022/02/01 18:05:07;;;;;;;;;;;;;;;;;;5048691;28;19932;-93
2022/02/01 18:07:33;;;;;;;;;;;;;;;;;;5052631;28;19971;-95
2022/02/01 18:10:02;;;;;;;;;;;;;;;;;;5061960;28;19940;-94
2022/02/01 18:12:41;;;;;;;;;;;;;;;;;;5091710;22;19936;-95
2022/02/01 18:15:08;;;;;;;;;;;;;;;;;;5088232;28;19947;-93
2022/02/01 18:17:41;;;;;;;;;;;;;;;;;;5088901;28;19924;-96
2022/02/01 18:20:10;;;;;;;;;;;;;;;;;;5099232;28;19935;-96
2022/02/01 18:22:37;;;;;;;;;;;;;;;;;;5107499;28;19924;-96
2022/02/01 18:25:05;;;;;;;;;;;;;;;;;;5109928;28;19928;-96
2022/02/01 18:27:43;;;;;;;;;;;;;;;;;;5085957;28;19922;-96
2022/02/01 18:32:54;;;;;;;;;;;;;;;;;;5096899;28;19943;-96
2022/02/01 18:35:21;;;;;;;;;;;;;;;;;;5102004;28;19935;-96
2022/02/01 18:37:48;;;;;;;;;;;;;;;;;;5091799;28;19928;-91
2022/02/01 18:40:14;;;;;;;;;;;;;;;;;;5083599;28;19924;-92
2022/02/01 18:42:46;;;;;;;;;;;;;;;;;;5085660;28;19924;-96
2022/02/01 18:45:14;;;;;;;;;;;;;;;;;;5083901;28;19932;-96
2022/02/01 18:47:42;;;;;;;;;;;;;;;;;;5085307;28;19987;-96
2022/02/01 18:50:26;;;;;;;;;;;;;;;;;;5095027;28;19924;-94
2022/02/01 18:53:07;;;;;;;;;;;;;;;;;;5100513;28;19995;-94
2022/02/01 18:55:47;;;;;;;;;;;;;;;;;;5084727;28;20509;-95
2022/02/01 18:58:15;;;;;;;;;;;;;;;;;;5105675;28;19924;-94
2022/02/01 19:03:53;;;;;;;;;;;;;;;;;;5089644;28;19981;-96
2022/02/01 19:06:33;;;;;;;;;;;;;;;;;;5071161;28;19964;-95
2022/02/01 19:11:56;;;;;;;;;;;;;;;;;;5068374;28;19924;-96
2022/02/01 19:14:24;;;;;;;;;;;;;;;;;;5091569;28;19925;-95
2022/02/01 19:16:53;;;;;;;;;;;;;;;;;;5089802;28;19958;-93
2022/02/01 19:19:20;;;;;;;;;;;;;;;;;;5090130;28;19916;-93
2022/02/01 19:21:48;;;;;;;;;;;;;;;;;;5091342;28;19908;-93
2022/02/01 19:24:30;;;;;;;;;;;;;;;;;;5091492;28;19933;-96
2022/02/01 19:27:03;;;;;;;;;;;;;;;;;;5093853;28;19924;-94
2022/02/01 19:29:29;;;;;;;;;;;;;;;;;;5106938;23;19925;-95
2022/02/01 19:31:57;;;;;;;;;;;;;;;;;;5083769;28;19924;-93
2022/02/01 19:34:23;;;;;;;;;;;;;;;;;;5072190;28;19925;-96
2022/02/01 19:36:49;;;;;;;;;;;;;;;;;;5083968;28;19929;-96
2022/02/01 19:39:17;;;;;;;;;;;;;;;;;;5074765;28;19925;-96
2022/02/01 19:41:43;;;;;;;;;;;;;;;;;;5090005;28;19924;-94
2022/02/01 19:44:11;;;;;;;;;;;;;;;;;;5086311;28;19925;-93
2022/02/01 19:46:38;;;;;;;;;;;;;;;;;;5085727;28;19967;-94
2022/02/01 19:49:05;;;;;;;;;;;;;;;;;;5085861;28;20026;-94
2022/02/01 19:51:34;;;;;;;;;;;;;;;;;;5085964;28;19935;-93
2022/02/01 19:54:01;;;;;;;;;;;;;;;;;;5086245;28;19924;-96
2022/02/01 19:56:28;;;;;;;;;;;;;;;;;;5067504;28;19924;-94
2022/02/01 19:58:54;;;;;;;;;;;;;;;;;;5083767;28;19986;-95
2022/02/01 20:01:20;;;;;;;;;;;;;;;;;;5074917;28;19978;-94
2022/02/01 20:03:46;;;;;;;;;;;;;;;;;;5070788;28;19925;-91
2022/02/01 20:06:13;;;;;;;;;;;;;;;;;;5071547;28;19947;-94
2022/02/01 20:08:39;;;;;;;;;;;;;;;;;;5072661;28;19978;-96
2022/02/01 20:11:08;;;;;;;;;;;;;;;;;;5074576;28;19928;-94
2022/02/01 20:13:35;;;;;;;;;;;;;;;;;;5071452;28;19924;-95
2022/02/01 20:16:01;;;;;;;;;;;;;;;;;;5064834;28;19925;-96
2022/02/01 20:18:28;;;;;;;;;;;;;;;;;;5063569;28;19947;-95
2022/02/01 20:20:54;;;;;;;;;;;;;;;;;;5064783;28;19925;-93
2022/02/01 20:23:20;;;;;;;;;;;;;;;;;;5070899;28;20358;-95
2022/02/01 20:25:46;;;;;;;;;;;;;;;;;;5074874;28;19929;-95
2022/02/01 20:28:13;;;;;;;;;;;;;;;;;;5086375;28;19973;-96
2022/02/01 20:30:39;;;;;;;;;;;;;;;;;;5089368;28;19967;-95
2022/02/01 20:33:12;;;;;;;;;;;;;;;;;;5094942;28;19920;-96
2022/02/01 20:35:46;;;;;;;;;;;;;;;;;;5092605;28;19924;-96